sensor_id;sensor_type;location;lat;lon;timestamp;temperature;humidity
20658;DHT22;10488;50.846;4.078;2022-07-29T00:00:54;18.10;99.90
20658;DHT22;10488;50.846;4.078;2022-07-29T00:03:20;18.10;99.90
20658;DHT22;10488;50.846;4.078;2022-07-29T00:05:46;18.00;99.90
20658;DHT22;10488;50.846;4.078;2022-07-29T00:08:12;17.90;99.90
20658;DHT22;10488;50.846;4.078;2022-07-29T00:10:38;17.90;99.90
20658;DHT22;10488;50.846;4.078;2022-07-29T00:13:04;18.10;99.90
20658;DHT22;10488;50.846;4.078;2022-07-29T00:15:30;18.10;99.90
20658;DHT22;10488;50.846;4.078;2022-07-29T00:17:56;17.90;99.90
20658;DHT22;10488;50.846;4.078;2022-07-29T00:20:22;17.90;99.90
20658;DHT22;10488;50.846;4.078;2022-07-29T00:22:48;17.90;99.90
20658;DHT22;10488;50.846;4.078;2022-07-29T00:25:13;17.70;99.90
20658;DHT22;10488;50.846;4.078;2022-07-29T00:27:39;17.60;99.90
20658;DHT22;10488;50.846;4.078;2022-07-29T00:30:06;17.70;99.90
20658;DHT22;10488;50.846;4.078;2022-07-29T00:32:32;17.80;99.90
20658;DHT22;10488;50.846;4.078;2022-07-29T00:34:57;17.60;99.90
20658;DHT22;10488;50.846;4.078;2022-07-29T00:37:41;17.40;99.90
20658;DHT22;10488;50.846;4.078;2022-07-29T00:40:08;17.50;99.90
20658;DHT22;10488;50.846;4.078;2022-07-29T00:42:48;17.50;99.90
20658;DHT22;10488;50.846;4.078;2022-07-29T00:45:15;17.30;99.90
20658;DHT22;10488;50.846;4.078;2022-07-29T00:47:42;17.20;99.90
20658;DHT22;10488;50.846;4.078;2022-07-29T00:50:09;17.30;99.90
20658;DHT22;10488;50.846;4.078;2022-07-29T00:52:37;17.40;99.90
20658;DHT22;10488;50.846;4.078;2022-07-29T00:55:06;17.30;99.90
20658;DHT22;10488;50.846;4.078;2022-07-29T00:57:32;17.30;99.90
20658;DHT22;10488;50.846;4.078;2022-07-29T00:59:58;17.30;99.90
20658;DHT22;10488;50.846;4.078;2022-07-29T01:02:24;17.40;99.90
20658;DHT22;10488;50.846;4.078;2022-07-29T01:04:50;17.50;99.90
20658;DHT22;10488;50.846;4.078;2022-07-29T01:07:17;17.50;99.90
20658;DHT22;10488;50.846;4.078;2022-07-29T01:09:44;17.50;99.90
20658;DHT22;10488;50.846;4.078;2022-07-29T01:12:13;17.40;99.90
20658;DHT22;10488;50.846;4.078;2022-07-29T01:14:39;17.40;99.90
20658;DHT22;10488;50.846;4.078;2022-07-29T01:17:25;17.30;99.90
20658;DHT22;10488;50.846;4.078;2022-07-29T01:31:22;17.20;99.90
20658;DHT22;10488;50.846;4.078;2022-07-29T01:33:57;17.20;99.90
20658;DHT22;10488;50.846;4.078;2022-07-29T01:36:52;17.20;99.90
20658;DHT22;10488;50.846;4.078;2022-07-29T01:39:26;17.20;99.90
20658;DHT22;10488;50.846;4.078;2022-07-29T01:44:41;17.10;99.90
20658;DHT22;10488;50.846;4.078;2022-07-29T01:47:14;17.00;99.90
20658;DHT22;10488;50.846;4.078;2022-07-29T01:49:49;17.00;99.90
20658;DHT22;10488;50.846;4.078;2022-07-29T01:52:23;17.00;99.90
20658;DHT22;10488;50.846;4.078;2022-07-29T01:54:57;17.00;99.90
20658;DHT22;10488;50.846;4.078;2022-07-29T01:57:29;17.00;99.90
20658;DHT22;10488;50.846;4.078;2022-07-29T01:59:58;16.70;99.90
20658;DHT22;10488;50.846;4.078;2022-07-29T02:02:26;16.70;99.90
20658;DHT22;10488;50.846;4.078;2022-07-29T02:04:53;16.70;99.90
20658;DHT22;10488;50.846;4.078;2022-07-29T02:07:21;16.60;99.90
20658;DHT22;10488;50.846;4.078;2022-07-29T02:09:50;16.60;99.90
20658;DHT22;10488;50.846;4.078;2022-07-29T02:12:18;16.60;99.90
20658;DHT22;10488;50.846;4.078;2022-07-29T02:14:47;16.40;99.90
20658;DHT22;10488;50.846;4.078;2022-07-29T02:17:21;16.50;99.90
20658;DHT22;10488;50.846;4.078;2022-07-29T02:19:48;16.20;99.90
20658;DHT22;10488;50.846;4.078;2022-07-29T02:22:16;16.20;99.90
20658;DHT22;10488;50.846;4.078;2022-07-29T02:24:45;16.20;99.90
20658;DHT22;10488;50.846;4.078;2022-07-29T02:27:13;16.20;99.90
20658;DHT22;10488;50.846;4.078;2022-07-29T02:29:40;16.20;99.90
20658;DHT22;10488;50.846;4.078;2022-07-29T02:32:08;16.30;99.90
20658;DHT22;10488;50.846;4.078;2022-07-29T02:34:37;16.10;99.90
20658;DHT22;10488;50.846;4.078;2022-07-29T02:37:04;16.00;99.90
20658;DHT22;10488;50.846;4.078;2022-07-29T02:39:31;16.00;99.90
20658;DHT22;10488;50.846;4.078;2022-07-29T02:42:07;16.10;99.90
20658;DHT22;10488;50.846;4.078;2022-07-29T02:44:35;16.10;99.90
20658;DHT22;10488;50.846;4.078;2022-07-29T02:50:06;16.00;99.90
20658;DHT22;10488;50.846;4.078;2022-07-29T02:55:34;15.90;99.90
20658;DHT22;10488;50.846;4.078;2022-07-29T02:58:21;16.00;99.90
20658;DHT22;10488;50.846;4.078;2022-07-29T03:00:52;15.90;99.90
20658;DHT22;10488;50.846;4.078;2022-07-29T03:03:19;15.90;99.90
20658;DHT22;10488;50.846;4.078;2022-07-29T03:05:45;15.80;99.90
20658;DHT22;10488;50.846;4.078;2022-07-29T03:08:12;15.70;99.90
20658;DHT22;10488;50.846;4.078;2022-07-29T03:10:44;15.80;99.90
20658;DHT22;10488;50.846;4.078;2022-07-29T03:13:12;15.80;99.90
20658;DHT22;10488;50.846;4.078;2022-07-29T03:15:43;15.70;99.90
20658;DHT22;10488;50.846;4.078;2022-07-29T03:18:09;15.70;99.90
20658;DHT22;10488;50.846;4.078;2022-07-29T03:20:37;15.70;99.90
20658;DHT22;10488;50.846;4.078;2022-07-29T03:23:02;15.70;99.90
20658;DHT22;10488;50.846;4.078;2022-07-29T03:25:28;15.10;99.90
20658;DHT22;10488;50.846;4.078;2022-07-29T03:27:54;14.90;99.90
20658;DHT22;10488;50.846;4.078;2022-07-29T03:30:19;14.80;99.90
20658;DHT22;10488;50.846;4.078;2022-07-29T03:32:45;14.50;99.90
20658;DHT22;10488;50.846;4.078;2022-07-29T03:35:11;14.50;99.90
20658;DHT22;10488;50.846;4.078;2022-07-29T03:37:36;14.70;99.90
20658;DHT22;10488;50.846;4.078;2022-07-29T03:40:05;14.90;99.90
20658;DHT22;10488;50.846;4.078;2022-07-29T03:42:36;14.80;99.90
20658;DHT22;10488;50.846;4.078;2022-07-29T03:45:07;14.80;99.90
20658;DHT22;10488;50.846;4.078;2022-07-29T03:47:35;14.70;99.90
20658;DHT22;10488;50.846;4.078;2022-07-29T03:50:06;14.60;99.90
20658;DHT22;10488;50.846;4.078;2022-07-29T03:52:32;14.70;99.90
20658;DHT22;10488;50.846;4.078;2022-07-29T03:54:58;14.60;99.90
20658;DHT22;10488;50.846;4.078;2022-07-29T03:57:27;14.70;99.90
20658;DHT22;10488;50.846;4.078;2022-07-29T03:59:53;14.70;99.90
20658;DHT22;10488;50.846;4.078;2022-07-29T04:02:20;14.60;99.90
20658;DHT22;10488;50.846;4.078;2022-07-29T04:04:46;14.70;99.90
20658;DHT22;10488;50.846;4.078;2022-07-29T04:07:14;14.70;99.90
20658;DHT22;10488;50.846;4.078;2022-07-29T04:09:41;14.60;99.90
20658;DHT22;10488;50.846;4.078;2022-07-29T04:12:08;14.50;99.90
20658;DHT22;10488;50.846;4.078;2022-07-29T04:14:35;14.40;99.90
20658;DHT22;10488;50.846;4.078;2022-07-29T04:17:03;14.60;99.90
20658;DHT22;10488;50.846;4.078;2022-07-29T04:19:31;14.70;99.90
20658;DHT22;10488;50.846;4.078;2022-07-29T04:21:59;14.60;99.90
20658;DHT22;10488;50.846;4.078;2022-07-29T04:24:25;14.60;99.90
20658;DHT22;10488;50.846;4.078;2022-07-29T04:26:52;14.70;99.90
20658;DHT22;10488;50.846;4.078;2022-07-29T04:29:18;14.60;99.90
20658;DHT22;10488;50.846;4.078;2022-07-29T04:31:44;14.70;99.90
20658;DHT22;10488;50.846;4.078;2022-07-29T04:34:11;14.70;99.90
20658;DHT22;10488;50.846;4.078;2022-07-29T04:36:37;14.60;99.90
20658;DHT22;10488;50.846;4.078;2022-07-29T04:39:03;14.80;99.90
20658;DHT22;10488;50.846;4.078;2022-07-29T04:41:32;14.80;99.90
20658;DHT22;10488;50.846;4.078;2022-07-29T04:43:57;15.00;99.90
20658;DHT22;10488;50.846;4.078;2022-07-29T04:46:27;14.90;99.90
20658;DHT22;10488;50.846;4.078;2022-07-29T04:48:52;15.10;99.90
20658;DHT22;10488;50.846;4.078;2022-07-29T04:51:18;15.10;99.90
20658;DHT22;10488;50.846;4.078;2022-07-29T04:53:43;14.90;99.90
20658;DHT22;10488;50.846;4.078;2022-07-29T04:56:10;15.10;99.90
20658;DHT22;10488;50.846;4.078;2022-07-29T04:58:37;15.10;99.90
20658;DHT22;10488;50.846;4.078;2022-07-29T05:01:03;15.20;99.90
20658;DHT22;10488;50.846;4.078;2022-07-29T05:03:29;15.30;99.90
20658;DHT22;10488;50.846;4.078;2022-07-29T05:05:56;15.20;99.90
20658;DHT22;10488;50.846;4.078;2022-07-29T05:08:21;15.10;99.90
20658;DHT22;10488;50.846;4.078;2022-07-29T05:10:47;15.30;99.90
20658;DHT22;10488;50.846;4.078;2022-07-29T05:13:14;15.50;99.90
20658;DHT22;10488;50.846;4.078;2022-07-29T05:15:39;15.30;99.90
20658;DHT22;10488;50.846;4.078;2022-07-29T05:18:06;15.00;99.90
20658;DHT22;10488;50.846;4.078;2022-07-29T05:20:32;15.10;99.90
20658;DHT22;10488;50.846;4.078;2022-07-29T05:23:00;14.90;99.90
20658;DHT22;10488;50.846;4.078;2022-07-29T05:25:26;15.00;99.90
20658;DHT22;10488;50.846;4.078;2022-07-29T05:27:54;15.10;99.90
20658;DHT22;10488;50.846;4.078;2022-07-29T05:30:20;15.30;99.90
20658;DHT22;10488;50.846;4.078;2022-07-29T05:32:46;15.30;99.90
20658;DHT22;10488;50.846;4.078;2022-07-29T05:35:12;15.30;99.90
20658;DHT22;10488;50.846;4.078;2022-07-29T05:37:39;15.40;99.90
20658;DHT22;10488;50.846;4.078;2022-07-29T05:40:06;15.40;99.90
20658;DHT22;10488;50.846;4.078;2022-07-29T05:42:32;15.50;99.90
20658;DHT22;10488;50.846;4.078;2022-07-29T05:44:58;15.30;99.90
20658;DHT22;10488;50.846;4.078;2022-07-29T05:47:25;15.30;99.90
20658;DHT22;10488;50.846;4.078;2022-07-29T05:49:53;15.50;99.90
20658;DHT22;10488;50.846;4.078;2022-07-29T05:52:20;16.20;99.90
20658;DHT22;10488;50.846;4.078;2022-07-29T05:54:47;17.50;99.90
20658;DHT22;10488;50.846;4.078;2022-07-29T05:57:20;18.00;99.90
20658;DHT22;10488;50.846;4.078;2022-07-29T05:59:47;18.80;99.90
20658;DHT22;10488;50.846;4.078;2022-07-29T06:02:16;20.20;99.90
20658;DHT22;10488;50.846;4.078;2022-07-29T06:04:42;21.90;99.90
20658;DHT22;10488;50.846;4.078;2022-07-29T06:07:08;22.10;99.90
20658;DHT22;10488;50.846;4.078;2022-07-29T06:09:34;22.40;99.90
20658;DHT22;10488;50.846;4.078;2022-07-29T06:12:01;23.30;99.90
20658;DHT22;10488;50.846;4.078;2022-07-29T06:14:27;23.60;99.90
20658;DHT22;10488;50.846;4.078;2022-07-29T06:16:54;22.90;99.90
20658;DHT22;10488;50.846;4.078;2022-07-29T06:19:19;23.10;99.90
20658;DHT22;10488;50.846;4.078;2022-07-29T06:21:46;22.40;99.90
20658;DHT22;10488;50.846;4.078;2022-07-29T06:24:14;22.80;99.90
20658;DHT22;10488;50.846;4.078;2022-07-29T06:26:41;23.30;99.90
20658;DHT22;10488;50.846;4.078;2022-07-29T06:29:09;23.50;99.90
20658;DHT22;10488;50.846;4.078;2022-07-29T06:31:36;23.40;99.90
20658;DHT22;10488;50.846;4.078;2022-07-29T06:34:04;23.70;99.90
20658;DHT22;10488;50.846;4.078;2022-07-29T06:36:30;24.90;99.90
20658;DHT22;10488;50.846;4.078;2022-07-29T06:38:57;24.90;99.90
20658;DHT22;10488;50.846;4.078;2022-07-29T06:41:23;24.40;99.90
20658;DHT22;10488;50.846;4.078;2022-07-29T06:43:49;23.90;99.90
20658;DHT22;10488;50.846;4.078;2022-07-29T06:46:17;24.00;99.90
20658;DHT22;10488;50.846;4.078;2022-07-29T06:48:44;23.40;99.90
20658;DHT22;10488;50.846;4.078;2022-07-29T06:51:10;21.10;99.90
20658;DHT22;10488;50.846;4.078;2022-07-29T06:53:37;22.00;99.90
20658;DHT22;10488;50.846;4.078;2022-07-29T06:56:04;22.40;99.90
20658;DHT22;10488;50.846;4.078;2022-07-29T06:58:31;22.10;99.90
20658;DHT22;10488;50.846;4.078;2022-07-29T07:00:58;21.70;99.90
20658;DHT22;10488;50.846;4.078;2022-07-29T07:03:24;22.00;99.90
20658;DHT22;10488;50.846;4.078;2022-07-29T07:05:50;22.00;99.90
20658;DHT22;10488;50.846;4.078;2022-07-29T07:08:18;21.90;99.90
20658;DHT22;10488;50.846;4.078;2022-07-29T07:10:45;21.60;99.90
20658;DHT22;10488;50.846;4.078;2022-07-29T07:13:11;21.50;99.90
20658;DHT22;10488;50.846;4.078;2022-07-29T07:15:38;21.70;99.90
20658;DHT22;10488;50.846;4.078;2022-07-29T07:18:05;22.00;99.90
20658;DHT22;10488;50.846;4.078;2022-07-29T07:20:33;23.20;99.90
20658;DHT22;10488;50.846;4.078;2022-07-29T07:22:59;23.90;99.90
20658;DHT22;10488;50.846;4.078;2022-07-29T07:25:25;24.60;99.90
20658;DHT22;10488;50.846;4.078;2022-07-29T07:27:50;23.20;99.90
20658;DHT22;10488;50.846;4.078;2022-07-29T07:30:16;22.40;99.90
20658;DHT22;10488;50.846;4.078;2022-07-29T07:32:42;22.10;99.90
20658;DHT22;10488;50.846;4.078;2022-07-29T07:35:09;22.80;99.90
20658;DHT22;10488;50.846;4.078;2022-07-29T07:37:35;22.90;99.90
20658;DHT22;10488;50.846;4.078;2022-07-29T07:40:03;23.40;99.90
20658;DHT22;10488;50.846;4.078;2022-07-29T07:42:30;24.20;99.90
20658;DHT22;10488;50.846;4.078;2022-07-29T07:44:56;24.40;99.90
20658;DHT22;10488;50.846;4.078;2022-07-29T07:47:21;22.80;99.90
20658;DHT22;10488;50.846;4.078;2022-07-29T07:49:52;23.20;99.90
20658;DHT22;10488;50.846;4.078;2022-07-29T07:52:20;22.80;99.90
20658;DHT22;10488;50.846;4.078;2022-07-29T07:54:47;23.10;99.90
20658;DHT22;10488;50.846;4.078;2022-07-29T07:57:14;23.60;99.90
20658;DHT22;10488;50.846;4.078;2022-07-29T07:59:40;24.60;99.90
20658;DHT22;10488;50.846;4.078;2022-07-29T08:02:06;25.60;99.90
20658;DHT22;10488;50.846;4.078;2022-07-29T08:04:34;25.30;99.90
20658;DHT22;10488;50.846;4.078;2022-07-29T08:07:00;23.30;99.90
20658;DHT22;10488;50.846;4.078;2022-07-29T08:09:27;24.60;99.90
20658;DHT22;10488;50.846;4.078;2022-07-29T08:11:55;25.60;99.90
20658;DHT22;10488;50.846;4.078;2022-07-29T08:14:20;24.90;99.90
20658;DHT22;10488;50.846;4.078;2022-07-29T08:16:52;23.80;99.90
20658;DHT22;10488;50.846;4.078;2022-07-29T08:19:19;24.50;99.90
20658;DHT22;10488;50.846;4.078;2022-07-29T08:21:46;24.80;99.90
20658;DHT22;10488;50.846;4.078;2022-07-29T08:24:12;25.40;99.90
20658;DHT22;10488;50.846;4.078;2022-07-29T08:26:56;24.30;99.90
20658;DHT22;10488;50.846;4.078;2022-07-29T08:29:23;25.00;99.90
20658;DHT22;10488;50.846;4.078;2022-07-29T08:31:50;25.50;99.90
20658;DHT22;10488;50.846;4.078;2022-07-29T08:34:16;24.80;99.90
20658;DHT22;10488;50.846;4.078;2022-07-29T08:36:42;24.40;99.90
20658;DHT22;10488;50.846;4.078;2022-07-29T08:39:08;24.60;99.90
20658;DHT22;10488;50.846;4.078;2022-07-29T08:41:36;24.60;99.90
20658;DHT22;10488;50.846;4.078;2022-07-29T08:44:02;25.40;99.90
20658;DHT22;10488;50.846;4.078;2022-07-29T08:46:28;25.40;99.90
20658;DHT22;10488;50.846;4.078;2022-07-29T08:48:56;25.90;99.90
20658;DHT22;10488;50.846;4.078;2022-07-29T08:51:25;26.80;99.90
20658;DHT22;10488;50.846;4.078;2022-07-29T08:53:53;25.70;99.90
20658;DHT22;10488;50.846;4.078;2022-07-29T08:56:22;25.30;99.90
20658;DHT22;10488;50.846;4.078;2022-07-29T08:58:48;26.10;99.90
20658;DHT22;10488;50.846;4.078;2022-07-29T09:01:24;27.00;99.90
20658;DHT22;10488;50.846;4.078;2022-07-29T09:03:50;26.40;99.90
20658;DHT22;10488;50.846;4.078;2022-07-29T09:06:21;27.20;99.90
20658;DHT22;10488;50.846;4.078;2022-07-29T09:08:47;26.40;99.90
20658;DHT22;10488;50.846;4.078;2022-07-29T09:11:15;25.60;99.90
20658;DHT22;10488;50.846;4.078;2022-07-29T09:13:40;25.80;99.90
20658;DHT22;10488;50.846;4.078;2022-07-29T09:16:06;25.80;99.90
20658;DHT22;10488;50.846;4.078;2022-07-29T09:18:42;26.70;99.90
20658;DHT22;10488;50.846;4.078;2022-07-29T09:21:13;27.00;99.90
20658;DHT22;10488;50.846;4.078;2022-07-29T09:24:11;26.60;99.90
20658;DHT22;10488;50.846;4.078;2022-07-29T09:26:42;26.50;99.90
20658;DHT22;10488;50.846;4.078;2022-07-29T09:29:18;27.30;99.90
20658;DHT22;10488;50.846;4.078;2022-07-29T09:31:51;26.50;99.90
20658;DHT22;10488;50.846;4.078;2022-07-29T09:34:22;26.80;99.90
20658;DHT22;10488;50.846;4.078;2022-07-29T09:36:50;26.90;99.90
20658;DHT22;10488;50.846;4.078;2022-07-29T09:42:02;27.60;99.90
20658;DHT22;10488;50.846;4.078;2022-07-29T09:45:01;27.50;99.90
20658;DHT22;10488;50.846;4.078;2022-07-29T09:47:45;26.90;99.90
20658;DHT22;10488;50.846;4.078;2022-07-29T09:50:22;26.90;99.90
20658;DHT22;10488;50.846;4.078;2022-07-29T09:52:54;27.00;99.90
20658;DHT22;10488;50.846;4.078;2022-07-29T09:55:19;26.30;99.90
20658;DHT22;10488;50.846;4.078;2022-07-29T09:57:46;26.70;99.90
20658;DHT22;10488;50.846;4.078;2022-07-29T10:00:19;25.80;99.90
20658;DHT22;10488;50.846;4.078;2022-07-29T10:02:48;25.20;99.90
20658;DHT22;10488;50.846;4.078;2022-07-29T10:05:21;25.20;99.90
20658;DHT22;10488;50.846;4.078;2022-07-29T10:07:58;25.50;99.90
20658;DHT22;10488;50.846;4.078;2022-07-29T10:10:32;25.90;99.90
20658;DHT22;10488;50.846;4.078;2022-07-29T10:13:08;26.20;99.90
20658;DHT22;10488;50.846;4.078;2022-07-29T10:15:39;26.10;99.90
20658;DHT22;10488;50.846;4.078;2022-07-29T10:18:12;26.20;99.90
20658;DHT22;10488;50.846;4.078;2022-07-29T10:20:40;26.30;99.90
20658;DHT22;10488;50.846;4.078;2022-07-29T10:23:05;26.10;99.90
20658;DHT22;10488;50.846;4.078;2022-07-29T10:25:32;25.90;99.90
20658;DHT22;10488;50.846;4.078;2022-07-29T10:27:59;25.60;99.90
20658;DHT22;10488;50.846;4.078;2022-07-29T10:30:26;25.70;99.90
20658;DHT22;10488;50.846;4.078;2022-07-29T10:33:33;25.90;99.90
20658;DHT22;10488;50.846;4.078;2022-07-29T10:44:21;26.10;99.90
20658;DHT22;10488;50.846;4.078;2022-07-29T10:46:48;26.20;99.90
20658;DHT22;10488;50.846;4.078;2022-07-29T10:49:22;26.10;99.90
20658;DHT22;10488;50.846;4.078;2022-07-29T10:54:17;26.00;99.90
20658;DHT22;10488;50.846;4.078;2022-07-29T10:56:43;26.10;99.90
20658;DHT22;10488;50.846;4.078;2022-07-29T11:01:48;26.60;99.90
20658;DHT22;10488;50.846;4.078;2022-07-29T11:04:15;26.90;99.90
20658;DHT22;10488;50.846;4.078;2022-07-29T11:09:26;27.10;99.90
20658;DHT22;10488;50.846;4.078;2022-07-29T11:11:54;26.50;99.90
20658;DHT22;10488;50.846;4.078;2022-07-29T11:17:17;26.50;99.90
20658;DHT22;10488;50.846;4.078;2022-07-29T11:19:44;26.60;99.90
20658;DHT22;10488;50.846;4.078;2022-07-29T11:22:11;26.10;99.90
20658;DHT22;10488;50.846;4.078;2022-07-29T11:24:38;26.50;99.90
20658;DHT22;10488;50.846;4.078;2022-07-29T11:27:14;26.50;99.90
20658;DHT22;10488;50.846;4.078;2022-07-29T11:29:52;26.90;99.90
20658;DHT22;10488;50.846;4.078;2022-07-29T11:32:18;27.60;99.90
20658;DHT22;10488;50.846;4.078;2022-07-29T11:34:47;27.40;99.90
20658;DHT22;10488;50.846;4.078;2022-07-29T11:37:16;27.90;99.90
20658;DHT22;10488;50.846;4.078;2022-07-29T11:39:46;27.40;99.90
20658;DHT22;10488;50.846;4.078;2022-07-29T11:47:26;27.00;99.90
20658;DHT22;10488;50.846;4.078;2022-07-29T11:49:53;27.50;99.90
20658;DHT22;10488;50.846;4.078;2022-07-29T11:52:20;27.10;99.90
20658;DHT22;10488;50.846;4.078;2022-07-29T11:54:48;27.40;99.90
20658;DHT22;10488;50.846;4.078;2022-07-29T11:57:19;27.00;99.90
20658;DHT22;10488;50.846;4.078;2022-07-29T11:59:46;27.20;99.90
20658;DHT22;10488;50.846;4.078;2022-07-29T12:02:14;26.80;99.90
20658;DHT22;10488;50.846;4.078;2022-07-29T12:04:54;26.40;99.90
20658;DHT22;10488;50.846;4.078;2022-07-29T12:07:28;26.40;99.90
20658;DHT22;10488;50.846;4.078;2022-07-29T12:09:54;26.60;99.90
20658;DHT22;10488;50.846;4.078;2022-07-29T12:12:20;26.70;99.90
20658;DHT22;10488;50.846;4.078;2022-07-29T12:14:46;27.30;99.90
20658;DHT22;10488;50.846;4.078;2022-07-29T12:17:31;27.60;99.90
20658;DHT22;10488;50.846;4.078;2022-07-29T12:20:02;26.80;99.90
20658;DHT22;10488;50.846;4.078;2022-07-29T12:25:02;26.30;99.90
20658;DHT22;10488;50.846;4.078;2022-07-29T12:27:28;26.30;99.90
20658;DHT22;10488;50.846;4.078;2022-07-29T12:30:01;26.10;99.90
20658;DHT22;10488;50.846;4.078;2022-07-29T12:32:37;26.40;99.90
20658;DHT22;10488;50.846;4.078;2022-07-29T12:35:09;26.90;99.90
20658;DHT22;10488;50.846;4.078;2022-07-29T12:37:37;27.20;99.90
20658;DHT22;10488;50.846;4.078;2022-07-29T12:40:04;27.40;99.90
20658;DHT22;10488;50.846;4.078;2022-07-29T12:42:31;27.40;99.90
20658;DHT22;10488;50.846;4.078;2022-07-29T12:44:57;27.50;99.90
20658;DHT22;10488;50.846;4.078;2022-07-29T12:47:23;27.10;99.90
20658;DHT22;10488;50.846;4.078;2022-07-29T12:49:49;26.90;99.90
20658;DHT22;10488;50.846;4.078;2022-07-29T12:52:32;27.30;99.90
20658;DHT22;10488;50.846;4.078;2022-07-29T12:55:01;27.20;99.90
20658;DHT22;10488;50.846;4.078;2022-07-29T12:57:28;27.50;99.90
20658;DHT22;10488;50.846;4.078;2022-07-29T13:00:07;27.90;99.90
20658;DHT22;10488;50.846;4.078;2022-07-29T13:02:34;28.10;99.90
20658;DHT22;10488;50.846;4.078;2022-07-29T13:05:01;27.90;99.90
20658;DHT22;10488;50.846;4.078;2022-07-29T13:07:31;28.00;99.90
20658;DHT22;10488;50.846;4.078;2022-07-29T13:10:17;28.40;99.90
20658;DHT22;10488;50.846;4.078;2022-07-29T13:15:29;27.60;99.90
20658;DHT22;10488;50.846;4.078;2022-07-29T13:17:55;27.20;99.90
20658;DHT22;10488;50.846;4.078;2022-07-29T13:20:26;26.60;99.90
20658;DHT22;10488;50.846;4.078;2022-07-29T13:22:55;26.90;99.90
20658;DHT22;10488;50.846;4.078;2022-07-29T13:25:30;26.80;99.90
20658;DHT22;10488;50.846;4.078;2022-07-29T13:27:57;26.90;99.90
20658;DHT22;10488;50.846;4.078;2022-07-29T13:30:24;26.70;99.90
20658;DHT22;10488;50.846;4.078;2022-07-29T13:32:51;26.80;99.90
20658;DHT22;10488;50.846;4.078;2022-07-29T13:35:20;26.50;99.90
20658;DHT22;10488;50.846;4.078;2022-07-29T13:37:47;26.80;99.90
20658;DHT22;10488;50.846;4.078;2022-07-29T13:40:13;26.60;99.90
20658;DHT22;10488;50.846;4.078;2022-07-29T13:42:40;26.90;99.90
20658;DHT22;10488;50.846;4.078;2022-07-29T13:45:06;27.00;99.90
20658;DHT22;10488;50.846;4.078;2022-07-29T13:47:32;27.10;99.90
20658;DHT22;10488;50.846;4.078;2022-07-29T13:50:00;27.10;99.90
20658;DHT22;10488;50.846;4.078;2022-07-29T13:52:26;27.00;99.90
20658;DHT22;10488;50.846;4.078;2022-07-29T13:54:52;26.80;99.90
20658;DHT22;10488;50.846;4.078;2022-07-29T13:57:18;26.80;99.90
20658;DHT22;10488;50.846;4.078;2022-07-29T13:59:44;27.40;99.90
20658;DHT22;10488;50.846;4.078;2022-07-29T14:02:10;27.60;99.90
20658;DHT22;10488;50.846;4.078;2022-07-29T14:04:38;27.60;99.90
20658;DHT22;10488;50.846;4.078;2022-07-29T14:07:04;27.80;99.90
20658;DHT22;10488;50.846;4.078;2022-07-29T14:09:30;27.50;99.90
20658;DHT22;10488;50.846;4.078;2022-07-29T14:11:56;27.40;99.90
20658;DHT22;10488;50.846;4.078;2022-07-29T14:14:22;27.50;99.90
20658;DHT22;10488;50.846;4.078;2022-07-29T14:16:48;27.10;99.90
20658;DHT22;10488;50.846;4.078;2022-07-29T14:19:14;27.20;99.90
20658;DHT22;10488;50.846;4.078;2022-07-29T14:21:40;27.30;99.90
20658;DHT22;10488;50.846;4.078;2022-07-29T14:24:06;27.70;99.90
20658;DHT22;10488;50.846;4.078;2022-07-29T14:26:32;27.20;99.90
20658;DHT22;10488;50.846;4.078;2022-07-29T14:28:58;27.10;99.90
20658;DHT22;10488;50.846;4.078;2022-07-29T14:31:23;27.30;99.90
20658;DHT22;10488;50.846;4.078;2022-07-29T14:33:49;27.40;99.90
20658;DHT22;10488;50.846;4.078;2022-07-29T14:36:15;27.00;99.90
20658;DHT22;10488;50.846;4.078;2022-07-29T14:38:41;27.00;99.90
20658;DHT22;10488;50.846;4.078;2022-07-29T14:41:08;26.80;99.90
20658;DHT22;10488;50.846;4.078;2022-07-29T14:43:34;27.10;99.90
20658;DHT22;10488;50.846;4.078;2022-07-29T14:46:01;26.90;99.90
20658;DHT22;10488;50.846;4.078;2022-07-29T14:48:28;26.50;99.90
20658;DHT22;10488;50.846;4.078;2022-07-29T14:50:53;26.50;99.90
20658;DHT22;10488;50.846;4.078;2022-07-29T14:53:21;26.90;99.90
20658;DHT22;10488;50.846;4.078;2022-07-29T14:55:47;27.30;99.90
20658;DHT22;10488;50.846;4.078;2022-07-29T14:58:13;27.30;99.90
20658;DHT22;10488;50.846;4.078;2022-07-29T15:00:40;27.10;99.90
20658;DHT22;10488;50.846;4.078;2022-07-29T15:03:06;26.20;99.90
20658;DHT22;10488;50.846;4.078;2022-07-29T15:05:34;25.90;99.90
20658;DHT22;10488;50.846;4.078;2022-07-29T15:08:03;26.00;99.90
20658;DHT22;10488;50.846;4.078;2022-07-29T15:10:29;26.50;99.90
20658;DHT22;10488;50.846;4.078;2022-07-29T15:12:56;26.50;99.90
20658;DHT22;10488;50.846;4.078;2022-07-29T15:15:22;26.50;99.90
20658;DHT22;10488;50.846;4.078;2022-07-29T15:17:48;26.60;99.90
20658;DHT22;10488;50.846;4.078;2022-07-29T15:20:13;26.70;99.90
20658;DHT22;10488;50.846;4.078;2022-07-29T15:22:40;26.60;99.90
20658;DHT22;10488;50.846;4.078;2022-07-29T15:25:10;26.40;99.90
20658;DHT22;10488;50.846;4.078;2022-07-29T15:27:36;26.40;99.90
20658;DHT22;10488;50.846;4.078;2022-07-29T15:30:02;25.90;99.90
20658;DHT22;10488;50.846;4.078;2022-07-29T15:32:28;25.60;99.90
20658;DHT22;10488;50.846;4.078;2022-07-29T15:34:54;25.70;99.90
20658;DHT22;10488;50.846;4.078;2022-07-29T15:37:19;25.90;99.90
20658;DHT22;10488;50.846;4.078;2022-07-29T15:39:45;26.10;99.90
20658;DHT22;10488;50.846;4.078;2022-07-29T15:42:11;26.20;99.90
20658;DHT22;10488;50.846;4.078;2022-07-29T15:44:37;26.00;99.90
20658;DHT22;10488;50.846;4.078;2022-07-29T15:47:02;25.70;99.90
20658;DHT22;10488;50.846;4.078;2022-07-29T15:49:29;25.80;99.90
20658;DHT22;10488;50.846;4.078;2022-07-29T15:52:02;26.20;99.90
20658;DHT22;10488;50.846;4.078;2022-07-29T15:54:29;26.40;99.90
20658;DHT22;10488;50.846;4.078;2022-07-29T15:56:56;26.80;99.90
20658;DHT22;10488;50.846;4.078;2022-07-29T15:59:21;26.90;99.90
20658;DHT22;10488;50.846;4.078;2022-07-29T16:01:48;27.10;99.90
20658;DHT22;10488;50.846;4.078;2022-07-29T16:04:14;26.70;99.90
20658;DHT22;10488;50.846;4.078;2022-07-29T16:06:40;26.70;99.90
20658;DHT22;10488;50.846;4.078;2022-07-29T16:09:06;26.50;99.90
20658;DHT22;10488;50.846;4.078;2022-07-29T16:11:31;26.50;99.90
20658;DHT22;10488;50.846;4.078;2022-07-29T16:13:57;26.30;99.90
20658;DHT22;10488;50.846;4.078;2022-07-29T16:16:23;26.20;99.90
20658;DHT22;10488;50.846;4.078;2022-07-29T16:18:49;26.00;99.90
20658;DHT22;10488;50.846;4.078;2022-07-29T16:21:15;26.20;99.90
20658;DHT22;10488;50.846;4.078;2022-07-29T16:23:40;26.10;99.90
20658;DHT22;10488;50.846;4.078;2022-07-29T16:26:06;26.00;99.90
20658;DHT22;10488;50.846;4.078;2022-07-29T16:28:32;26.10;99.90